GCLA Airport Information

Runway Information
Runway 36 Length 7218 ft width 148 ft
Elevation 103 ft Threshold ft Heading 359
Runway 18 Length 7218 ft Width 148 ft
Elevation 65 ft Threshold ft Heading 179
Airport Frequencies
Type APP Name CANARIAS A Frequency 126.1 MHZ
Type ATIS Name INFO Frequency 118.6 MHZ
Type GND Name GND Frequency 121.8 MHZ
Type TWR Name TWR Frequency 118.9 MHZ
Airport Navaids
Type DME Name La Palma Frequency 112400 KHZ
Type NDB Name La Palma Frequency 389 KHZ
Airport Weather Information & NOTAM
ADDS - METARS form results

(2146 UTC 28 June 2022)
Data provider http://aviationweather.gov/metar/data/
 
METAR text: GCLA 282130Z AUTO 03017KT 9999 FEW033 BKN040 21/15 Q1023
Conditions at: GCLA (LA PALMA AIRPORT, ES) observed 2130 UTC 28 June 2022
Temperature: 21.0°C (70°F)
Dewpoint: 15.0°C (59°F) [RH = 69%]
Pressure (altimeter): 30.21 inches Hg (1023.0 mb)
Winds: from the NNE (30 degrees) at 20 MPH (17 knots; 8.7 m/s)
Visibility: 6 or more miles (10+ km)
Ceiling: 4000 feet AGL
Clouds: few clouds at 3300 feet AGL
broken clouds at 4000 feet AGL
Weather: no significant weather observed at this time

METAR text: GCLA 282100Z AUTO 02017KT 9999 SCT033 BKN041 21/15 Q1023
Conditions at: GCLA (LA PALMA AIRPORT, ES) observed 2100 UTC 28 June 2022
Temperature: 21.0°C (70°F)
Dewpoint: 15.0°C (59°F) [RH = 69%]
Pressure (altimeter): 30.21 inches Hg (1023.0 mb)
Winds: from the NNE (20 degrees) at 20 MPH (17 knots; 8.7 m/s)
Visibility: 6 or more miles (10+ km)
Ceiling: 4100 feet AGL
Clouds: scattered clouds at 3300 feet AGL
broken clouds at 4100 feet AGL
Weather: no significant weather observed at this time

Forecast for: GCLA (LA PALMA AIRPORT, ES)
Text: TAF GCLA 282000Z 2821/2921 02018KT 9999 BKN035 TX26/2914Z TN19/2906Z
Forecast period: 2100 UTC 28 June 2022 to 2100 UTC 29 June 2022
Forecast type: FROM: standard forecast or significant change
Winds: from the NNE (20 degrees) at 21 MPH (18 knots; 9.3 m/s)
Visibility: 6 or more miles (10+ km)
Ceiling: 3500 feet AGL
Clouds: broken clouds at 3500 feet AGL
Weather: no significant weather forecast for this period